sensor_id;sensor_type;location;lat;lon;timestamp;P1;durP1;ratioP1;P2;durP2;ratioP2
76552;SDS011;65395;53.168;18.156;2023-09-18T00:01:03;12.10;;;9.80;;
76552;SDS011;65395;53.168;18.156;2023-09-18T00:03:40;16.50;;;10.70;;
76552;SDS011;65395;53.168;18.156;2023-09-18T00:06:07;13.60;;;10.90;;
76552;SDS011;65395;53.168;18.156;2023-09-18T00:08:35;15.40;;;11.00;;
76552;SDS011;65395;53.168;18.156;2023-09-18T00:11:02;14.10;;;10.90;;
76552;SDS011;65395;53.168;18.156;2023-09-18T00:13:29;15.50;;;10.20;;
76552;SDS011;65395;53.168;18.156;2023-09-18T00:15:55;14.00;;;10.40;;
76552;SDS011;65395;53.168;18.156;2023-09-18T00:18:26;15.70;;;10.20;;
76552;SDS011;65395;53.168;18.156;2023-09-18T00:20:53;13.70;;;10.20;;
76552;SDS011;65395;53.168;18.156;2023-09-18T00:23:20;13.00;;;9.70;;
76552;SDS011;65395;53.168;18.156;2023-09-18T00:25:47;14.60;;;10.60;;
76552;SDS011;65395;53.168;18.156;2023-09-18T00:28:14;13.80;;;10.10;;
76552;SDS011;65395;53.168;18.156;2023-09-18T00:30:42;15.40;;;11.10;;
76552;SDS011;65395;53.168;18.156;2023-09-18T00:33:16;15.50;;;11.20;;
76552;SDS011;65395;53.168;18.156;2023-09-18T00:35:46;14.80;;;10.90;;
76552;SDS011;65395;53.168;18.156;2023-09-18T00:38:14;17.70;;;10.90;;
76552;SDS011;65395;53.168;18.156;2023-09-18T00:40:41;14.70;;;10.00;;
76552;SDS011;65395;53.168;18.156;2023-09-18T00:43:08;14.70;;;9.80;;
76552;SDS011;65395;53.168;18.156;2023-09-18T00:45:38;14.70;;;9.80;;
76552;SDS011;65395;53.168;18.156;2023-09-18T00:48:10;14.60;;;10.40;;
76552;SDS011;65395;53.168;18.156;2023-09-18T00:50:38;16.30;;;10.90;;
76552;SDS011;65395;53.168;18.156;2023-09-18T00:53:07;17.10;;;11.50;;
76552;SDS011;65395;53.168;18.156;2023-09-18T00:55:36;16.10;;;11.50;;
76552;SDS011;65395;53.168;18.156;2023-09-18T00:58:05;16.70;;;11.40;;
76552;SDS011;65395;53.168;18.156;2023-09-18T01:00:33;16.90;;;11.60;;
76552;SDS011;65395;53.168;18.156;2023-09-18T01:03:01;15.00;;;11.20;;
76552;SDS011;65395;53.168;18.156;2023-09-18T01:05:33;16.50;;;10.70;;
76552;SDS011;65395;53.168;18.156;2023-09-18T01:08:00;16.50;;;10.70;;
76552;SDS011;65395;53.168;18.156;2023-09-18T01:10:29;12.80;;;10.00;;
76552;SDS011;65395;53.168;18.156;2023-09-18T01:13:04;15.40;;;10.90;;
76552;SDS011;65395;53.168;18.156;2023-09-18T01:15:42;14.20;;;11.00;;
76552;SDS011;65395;53.168;18.156;2023-09-18T01:18:14;17.20;;;11.10;;
76552;SDS011;65395;53.168;18.156;2023-09-18T01:20:43;17.60;;;11.60;;
76552;SDS011;65395;53.168;18.156;2023-09-18T01:23:11;14.50;;;11.30;;
76552;SDS011;65395;53.168;18.156;2023-09-18T01:25:38;15.50;;;11.60;;
76552;SDS011;65395;53.168;18.156;2023-09-18T01:28:05;16.20;;;11.20;;
76552;SDS011;65395;53.168;18.156;2023-09-18T01:30:32;15.50;;;11.30;;
76552;SDS011;65395;53.168;18.156;2023-09-18T01:33:00;15.70;;;10.40;;
76552;SDS011;65395;53.168;18.156;2023-09-18T01:35:30;16.00;;;10.90;;
76552;SDS011;65395;53.168;18.156;2023-09-18T01:38:00;14.70;;;10.80;;
76552;SDS011;65395;53.168;18.156;2023-09-18T01:40:27;17.60;;;10.70;;
76552;SDS011;65395;53.168;18.156;2023-09-18T01:42:55;18.60;;;11.20;;
76552;SDS011;65395;53.168;18.156;2023-09-18T01:45:22;17.00;;;12.40;;
76552;SDS011;65395;53.168;18.156;2023-09-18T01:47:49;15.90;;;11.60;;
76552;SDS011;65395;53.168;18.156;2023-09-18T01:50:16;15.90;;;11.40;;
76552;SDS011;65395;53.168;18.156;2023-09-18T01:52:43;16.10;;;11.30;;
76552;SDS011;65395;53.168;18.156;2023-09-18T01:55:10;14.90;;;10.70;;
76552;SDS011;65395;53.168;18.156;2023-09-18T01:57:37;14.60;;;9.80;;
76552;SDS011;65395;53.168;18.156;2023-09-18T02:00:04;13.80;;;10.60;;
76552;SDS011;65395;53.168;18.156;2023-09-18T02:02:38;14.90;;;10.50;;
76552;SDS011;65395;53.168;18.156;2023-09-18T02:05:06;16.90;;;11.00;;
76552;SDS011;65395;53.168;18.156;2023-09-18T02:07:33;14.70;;;10.70;;
76552;SDS011;65395;53.168;18.156;2023-09-18T02:10:00;16.90;;;11.80;;
76552;SDS011;65395;53.168;18.156;2023-09-18T02:12:27;17.70;;;11.30;;
76552;SDS011;65395;53.168;18.156;2023-09-18T02:14:54;17.00;;;10.60;;
76552;SDS011;65395;53.168;18.156;2023-09-18T02:17:23;15.10;;;10.40;;
76552;SDS011;65395;53.168;18.156;2023-09-18T02:19:50;12.90;;;9.80;;
76552;SDS011;65395;53.168;18.156;2023-09-18T02:22:17;15.40;;;10.40;;
76552;SDS011;65395;53.168;18.156;2023-09-18T02:24:44;13.20;;;10.00;;
76552;SDS011;65395;53.168;18.156;2023-09-18T02:27:11;14.70;;;10.00;;
76552;SDS011;65395;53.168;18.156;2023-09-18T02:29:38;26.80;;;10.80;;
76552;SDS011;65395;53.168;18.156;2023-09-18T02:32:05;30.00;;;11.30;;
76552;SDS011;65395;53.168;18.156;2023-09-18T02:34:32;23.90;;;11.40;;
76552;SDS011;65395;53.168;18.156;2023-09-18T02:36:59;32.20;;;12.30;;
76552;SDS011;65395;53.168;18.156;2023-09-18T02:39:26;22.80;;;11.40;;
76552;SDS011;65395;53.168;18.156;2023-09-18T02:41:54;18.30;;;10.60;;
76552;SDS011;65395;53.168;18.156;2023-09-18T02:44:21;17.50;;;10.60;;
76552;SDS011;65395;53.168;18.156;2023-09-18T02:46:48;24.30;;;10.50;;
76552;SDS011;65395;53.168;18.156;2023-09-18T02:49:15;24.30;;;10.50;;
76552;SDS011;65395;53.168;18.156;2023-09-18T02:51:42;20.70;;;11.40;;
76552;SDS011;65395;53.168;18.156;2023-09-18T02:54:09;14.90;;;11.00;;
76552;SDS011;65395;53.168;18.156;2023-09-18T02:56:36;15.80;;;11.40;;
76552;SDS011;65395;53.168;18.156;2023-09-18T02:59:04;13.60;;;10.80;;
76552;SDS011;65395;53.168;18.156;2023-09-18T03:01:31;15.90;;;10.60;;
76552;SDS011;65395;53.168;18.156;2023-09-18T03:03:58;15.40;;;10.60;;
76552;SDS011;65395;53.168;18.156;2023-09-18T03:06:25;15.50;;;11.40;;
76552;SDS011;65395;53.168;18.156;2023-09-18T03:08:52;17.60;;;12.20;;
76552;SDS011;65395;53.168;18.156;2023-09-18T03:11:19;21.20;;;12.80;;
76552;SDS011;65395;53.168;18.156;2023-09-18T03:13:46;16.60;;;12.20;;
76552;SDS011;65395;53.168;18.156;2023-09-18T03:16:14;16.60;;;12.40;;
76552;SDS011;65395;53.168;18.156;2023-09-18T03:18:41;18.00;;;13.00;;
76552;SDS011;65395;53.168;18.156;2023-09-18T03:21:08;18.00;;;12.00;;
76552;SDS011;65395;53.168;18.156;2023-09-18T03:23:35;15.60;;;11.50;;
76552;SDS011;65395;53.168;18.156;2023-09-18T03:26:03;16.70;;;12.00;;
76552;SDS011;65395;53.168;18.156;2023-09-18T03:28:30;20.70;;;12.50;;
76552;SDS011;65395;53.168;18.156;2023-09-18T03:30:57;16.90;;;11.90;;
76552;SDS011;65395;53.168;18.156;2023-09-18T03:33:25;17.20;;;11.30;;
76552;SDS011;65395;53.168;18.156;2023-09-18T03:35:53;19.00;;;11.50;;
76552;SDS011;65395;53.168;18.156;2023-09-18T03:38:25;22.00;;;12.10;;
76552;SDS011;65395;53.168;18.156;2023-09-18T03:40:52;21.00;;;12.10;;
76552;SDS011;65395;53.168;18.156;2023-09-18T03:43:20;19.60;;;12.60;;
76552;SDS011;65395;53.168;18.156;2023-09-18T03:45:47;16.90;;;12.10;;
76552;SDS011;65395;53.168;18.156;2023-09-18T03:48:14;18.50;;;12.30;;
76552;SDS011;65395;53.168;18.156;2023-09-18T03:50:42;17.70;;;11.60;;
76552;SDS011;65395;53.168;18.156;2023-09-18T03:53:09;21.10;;;12.20;;
76552;SDS011;65395;53.168;18.156;2023-09-18T03:55:37;19.50;;;12.20;;
76552;SDS011;65395;53.168;18.156;2023-09-18T03:58:04;20.70;;;12.40;;
76552;SDS011;65395;53.168;18.156;2023-09-18T04:00:32;15.30;;;11.50;;
76552;SDS011;65395;53.168;18.156;2023-09-18T04:02:59;16.80;;;11.50;;
76552;SDS011;65395;53.168;18.156;2023-09-18T04:05:26;18.30;;;11.60;;
76552;SDS011;65395;53.168;18.156;2023-09-18T04:07:53;16.60;;;11.60;;
76552;SDS011;65395;53.168;18.156;2023-09-18T04:10:20;16.40;;;11.10;;
76552;SDS011;65395;53.168;18.156;2023-09-18T04:12:49;15.30;;;10.70;;
76552;SDS011;65395;53.168;18.156;2023-09-18T04:15:19;14.80;;;10.20;;
76552;SDS011;65395;53.168;18.156;2023-09-18T04:17:47;15.40;;;10.70;;
76552;SDS011;65395;53.168;18.156;2023-09-18T04:20:14;18.00;;;11.00;;
76552;SDS011;65395;53.168;18.156;2023-09-18T04:22:43;14.80;;;10.40;;
76552;SDS011;65395;53.168;18.156;2023-09-18T04:25:11;19.80;;;11.00;;
76552;SDS011;65395;53.168;18.156;2023-09-18T04:27:39;24.90;;;10.80;;
76552;SDS011;65395;53.168;18.156;2023-09-18T04:30:06;35.80;;;11.00;;
76552;SDS011;65395;53.168;18.156;2023-09-18T04:32:36;45.20;;;11.40;;
76552;SDS011;65395;53.168;18.156;2023-09-18T04:35:04;47.50;;;11.40;;
76552;SDS011;65395;53.168;18.156;2023-09-18T04:37:35;71.20;;;14.10;;
76552;SDS011;65395;53.168;18.156;2023-09-18T04:40:05;150.20;;;15.70;;
76552;SDS011;65395;53.168;18.156;2023-09-18T04:42:36;107.70;;;15.10;;
76552;SDS011;65395;53.168;18.156;2023-09-18T04:45:04;110.40;;;15.40;;
76552;SDS011;65395;53.168;18.156;2023-09-18T04:47:32;60.40;;;12.10;;
76552;SDS011;65395;53.168;18.156;2023-09-18T04:49:59;65.30;;;13.00;;
76552;SDS011;65395;53.168;18.156;2023-09-18T04:52:27;66.80;;;12.50;;
76552;SDS011;65395;53.168;18.156;2023-09-18T04:54:54;40.30;;;11.60;;
76552;SDS011;65395;53.168;18.156;2023-09-18T04:57:21;26.00;;;11.60;;
76552;SDS011;65395;53.168;18.156;2023-09-18T04:59:48;19.90;;;10.90;;
76552;SDS011;65395;53.168;18.156;2023-09-18T05:02:15;20.40;;;11.20;;
76552;SDS011;65395;53.168;18.156;2023-09-18T05:04:42;35.90;;;11.50;;
76552;SDS011;65395;53.168;18.156;2023-09-18T05:07:09;73.30;;;11.90;;
76552;SDS011;65395;53.168;18.156;2023-09-18T05:09:36;63.20;;;13.10;;
76552;SDS011;65395;53.168;18.156;2023-09-18T05:12:04;53.70;;;12.60;;
76552;SDS011;65395;53.168;18.156;2023-09-18T05:14:35;67.20;;;11.90;;
76552;SDS011;65395;53.168;18.156;2023-09-18T05:17:02;57.40;;;13.20;;
76552;SDS011;65395;53.168;18.156;2023-09-18T05:19:29;57.40;;;13.10;;
76552;SDS011;65395;53.168;18.156;2023-09-18T05:21:55;50.80;;;12.60;;
76552;SDS011;65395;53.168;18.156;2023-09-18T05:24:22;96.00;;;14.90;;
76552;SDS011;65395;53.168;18.156;2023-09-18T05:26:53;101.00;;;15.70;;
76552;SDS011;65395;53.168;18.156;2023-09-18T05:29:20;97.80;;;16.40;;
76552;SDS011;65395;53.168;18.156;2023-09-18T05:31:47;80.20;;;15.40;;
76552;SDS011;65395;53.168;18.156;2023-09-18T05:34:14;80.30;;;14.40;;
76552;SDS011;65395;53.168;18.156;2023-09-18T05:36:41;82.10;;;15.30;;
76552;SDS011;65395;53.168;18.156;2023-09-18T05:39:08;76.30;;;14.70;;
76552;SDS011;65395;53.168;18.156;2023-09-18T05:41:37;66.70;;;13.40;;
76552;SDS011;65395;53.168;18.156;2023-09-18T05:44:05;50.60;;;13.40;;
76552;SDS011;65395;53.168;18.156;2023-09-18T05:46:34;32.30;;;12.40;;
76552;SDS011;65395;53.168;18.156;2023-09-18T05:49:02;32.50;;;12.90;;
76552;SDS011;65395;53.168;18.156;2023-09-18T05:51:29;40.40;;;14.40;;
76552;SDS011;65395;53.168;18.156;2023-09-18T05:53:58;27.40;;;13.60;;
76552;SDS011;65395;53.168;18.156;2023-09-18T05:56:26;28.10;;;13.80;;
76552;SDS011;65395;53.168;18.156;2023-09-18T05:58:53;20.30;;;13.00;;
76552;SDS011;65395;53.168;18.156;2023-09-18T06:01:21;18.30;;;12.60;;
76552;SDS011;65395;53.168;18.156;2023-09-18T06:03:48;25.70;;;12.70;;
76552;SDS011;65395;53.168;18.156;2023-09-18T06:06:15;21.50;;;12.70;;
76552;SDS011;65395;53.168;18.156;2023-09-18T06:08:42;15.50;;;11.60;;
76552;SDS011;65395;53.168;18.156;2023-09-18T06:11:09;18.60;;;13.10;;
76552;SDS011;65395;53.168;18.156;2023-09-18T06:13:37;25.50;;;12.80;;
76552;SDS011;65395;53.168;18.156;2023-09-18T06:16:05;20.00;;;13.50;;
76552;SDS011;65395;53.168;18.156;2023-09-18T06:18:34;20.80;;;13.20;;
76552;SDS011;65395;53.168;18.156;2023-09-18T06:21:04;21.00;;;12.20;;
76552;SDS011;65395;53.168;18.156;2023-09-18T06:23:31;17.30;;;13.10;;
76552;SDS011;65395;53.168;18.156;2023-09-18T06:25:59;17.90;;;12.60;;
76552;SDS011;65395;53.168;18.156;2023-09-18T06:28:26;17.80;;;12.30;;
76552;SDS011;65395;53.168;18.156;2023-09-18T06:30:53;21.90;;;11.70;;
76552;SDS011;65395;53.168;18.156;2023-09-18T06:33:20;18.70;;;12.20;;
76552;SDS011;65395;53.168;18.156;2023-09-18T06:35:48;20.30;;;12.00;;
76552;SDS011;65395;53.168;18.156;2023-09-18T06:38:15;15.70;;;10.80;;
76552;SDS011;65395;53.168;18.156;2023-09-18T06:40:41;15.90;;;10.90;;
76552;SDS011;65395;53.168;18.156;2023-09-18T06:43:08;17.10;;;11.50;;
76552;SDS011;65395;53.168;18.156;2023-09-18T06:45:35;14.40;;;11.00;;
76552;SDS011;65395;53.168;18.156;2023-09-18T06:48:04;16.40;;;11.20;;
76552;SDS011;65395;53.168;18.156;2023-09-18T06:50:31;16.60;;;10.70;;
76552;SDS011;65395;53.168;18.156;2023-09-18T06:52:59;15.20;;;10.10;;
76552;SDS011;65395;53.168;18.156;2023-09-18T06:55:28;15.70;;;10.40;;
76552;SDS011;65395;53.168;18.156;2023-09-18T06:57:55;12.30;;;9.80;;
76552;SDS011;65395;53.168;18.156;2023-09-18T07:00:22;13.20;;;10.80;;
76552;SDS011;65395;53.168;18.156;2023-09-18T07:02:49;16.90;;;10.20;;
76552;SDS011;65395;53.168;18.156;2023-09-18T07:05:16;15.60;;;11.20;;
76552;SDS011;65395;53.168;18.156;2023-09-18T07:07:42;14.90;;;10.90;;
76552;SDS011;65395;53.168;18.156;2023-09-18T07:10:09;16.90;;;11.50;;
76552;SDS011;65395;53.168;18.156;2023-09-18T07:12:36;15.10;;;10.30;;
76552;SDS011;65395;53.168;18.156;2023-09-18T07:15:04;13.10;;;10.20;;
76552;SDS011;65395;53.168;18.156;2023-09-18T07:17:32;14.90;;;10.00;;
76552;SDS011;65395;53.168;18.156;2023-09-18T07:19:59;15.00;;;9.90;;
76552;SDS011;65395;53.168;18.156;2023-09-18T07:22:26;12.70;;;10.10;;
76552;SDS011;65395;53.168;18.156;2023-09-18T07:24:53;13.60;;;10.40;;
76552;SDS011;65395;53.168;18.156;2023-09-18T07:27:20;14.00;;;9.80;;
76552;SDS011;65395;53.168;18.156;2023-09-18T07:29:47;13.40;;;10.00;;
76552;SDS011;65395;53.168;18.156;2023-09-18T07:32:14;12.20;;;10.20;;
76552;SDS011;65395;53.168;18.156;2023-09-18T07:34:41;13.20;;;10.20;;
76552;SDS011;65395;53.168;18.156;2023-09-18T07:37:08;11.40;;;9.90;;
76552;SDS011;65395;53.168;18.156;2023-09-18T07:39:35;13.80;;;8.90;;
76552;SDS011;65395;53.168;18.156;2023-09-18T07:42:02;14.00;;;8.50;;
76552;SDS011;65395;53.168;18.156;2023-09-18T07:44:30;13.60;;;9.10;;
76552;SDS011;65395;53.168;18.156;2023-09-18T07:46:57;10.50;;;8.50;;
76552;SDS011;65395;53.168;18.156;2023-09-18T07:49:24;12.50;;;8.70;;
76552;SDS011;65395;53.168;18.156;2023-09-18T07:51:51;12.30;;;8.70;;
76552;SDS011;65395;53.168;18.156;2023-09-18T07:54:18;15.70;;;9.40;;
76552;SDS011;65395;53.168;18.156;2023-09-18T07:56:45;12.60;;;9.30;;
76552;SDS011;65395;53.168;18.156;2023-09-18T07:59:12;11.00;;;8.90;;
76552;SDS011;65395;53.168;18.156;2023-09-18T08:01:41;11.80;;;9.10;;
76552;SDS011;65395;53.168;18.156;2023-09-18T08:04:08;14.70;;;8.90;;
76552;SDS011;65395;53.168;18.156;2023-09-18T08:06:35;14.80;;;9.20;;
76552;SDS011;65395;53.168;18.156;2023-09-18T08:09:02;13.50;;;8.20;;
76552;SDS011;65395;53.168;18.156;2023-09-18T08:11:30;11.70;;;8.20;;
76552;SDS011;65395;53.168;18.156;2023-09-18T08:13:57;11.10;;;8.70;;
76552;SDS011;65395;53.168;18.156;2023-09-18T08:16:24;15.60;;;8.60;;
76552;SDS011;65395;53.168;18.156;2023-09-18T08:18:51;12.10;;;8.70;;
76552;SDS011;65395;53.168;18.156;2023-09-18T08:21:19;12.40;;;8.30;;
76552;SDS011;65395;53.168;18.156;2023-09-18T08:23:46;10.70;;;8.60;;
76552;SDS011;65395;53.168;18.156;2023-09-18T08:26:13;9.00;;;8.10;;
76552;SDS011;65395;53.168;18.156;2023-09-18T08:28:40;11.20;;;8.00;;
76552;SDS011;65395;53.168;18.156;2023-09-18T08:31:09;15.60;;;8.40;;
76552;SDS011;65395;53.168;18.156;2023-09-18T08:33:37;13.80;;;8.30;;
76552;SDS011;65395;53.168;18.156;2023-09-18T08:36:04;11.60;;;8.00;;
76552;SDS011;65395;53.168;18.156;2023-09-18T08:38:31;9.10;;;7.50;;
76552;SDS011;65395;53.168;18.156;2023-09-18T08:40:58;8.80;;;6.90;;
76552;SDS011;65395;53.168;18.156;2023-09-18T08:43:25;8.80;;;7.80;;
76552;SDS011;65395;53.168;18.156;2023-09-18T08:45:53;12.90;;;7.70;;
76552;SDS011;65395;53.168;18.156;2023-09-18T08:48:21;10.90;;;8.10;;
76552;SDS011;65395;53.168;18.156;2023-09-18T08:50:48;9.60;;;8.00;;
76552;SDS011;65395;53.168;18.156;2023-09-18T08:53:18;12.00;;;7.60;;
76552;SDS011;65395;53.168;18.156;2023-09-18T08:55:45;9.90;;;7.50;;
76552;SDS011;65395;53.168;18.156;2023-09-18T08:58:11;9.70;;;7.20;;
76552;SDS011;65395;53.168;18.156;2023-09-18T09:00:38;13.30;;;6.90;;
76552;SDS011;65395;53.168;18.156;2023-09-18T09:03:05;9.50;;;7.80;;
76552;SDS011;65395;53.168;18.156;2023-09-18T09:05:33;11.50;;;7.20;;
76552;SDS011;65395;53.168;18.156;2023-09-18T09:08:00;8.30;;;7.30;;
76552;SDS011;65395;53.168;18.156;2023-09-18T09:10:27;10.50;;;6.70;;
76552;SDS011;65395;53.168;18.156;2023-09-18T09:12:55;9.60;;;7.20;;
76552;SDS011;65395;53.168;18.156;2023-09-18T09:15:26;11.40;;;6.40;;
76552;SDS011;65395;53.168;18.156;2023-09-18T09:18:03;11.60;;;7.40;;
76552;SDS011;65395;53.168;18.156;2023-09-18T09:20:31;8.60;;;6.40;;
76552;SDS011;65395;53.168;18.156;2023-09-18T09:22:59;7.50;;;6.60;;
76552;SDS011;65395;53.168;18.156;2023-09-18T09:25:31;13.20;;;6.40;;
76552;SDS011;65395;53.168;18.156;2023-09-18T09:28:00;8.50;;;6.40;;
76552;SDS011;65395;53.168;18.156;2023-09-18T09:30:30;7.50;;;6.10;;
76552;SDS011;65395;53.168;18.156;2023-09-18T09:32:58;10.00;;;6.10;;
76552;SDS011;65395;53.168;18.156;2023-09-18T09:35:27;10.00;;;5.70;;
76552;SDS011;65395;53.168;18.156;2023-09-18T09:37:58;9.30;;;5.50;;
76552;SDS011;65395;53.168;18.156;2023-09-18T09:40:34;10.40;;;5.80;;
76552;SDS011;65395;53.168;18.156;2023-09-18T09:43:01;8.00;;;5.80;;
76552;SDS011;65395;53.168;18.156;2023-09-18T09:45:31;7.50;;;5.60;;
76552;SDS011;65395;53.168;18.156;2023-09-18T09:48:03;10.10;;;5.70;;
76552;SDS011;65395;53.168;18.156;2023-09-18T09:50:32;9.00;;;5.70;;
76552;SDS011;65395;53.168;18.156;2023-09-18T09:53:00;6.60;;;5.80;;
76552;SDS011;65395;53.168;18.156;2023-09-18T09:55:28;8.40;;;5.60;;
76552;SDS011;65395;53.168;18.156;2023-09-18T09:57:58;7.50;;;5.90;;
76552;SDS011;65395;53.168;18.156;2023-09-18T10:00:29;8.00;;;5.60;;
76552;SDS011;65395;53.168;18.156;2023-09-18T10:03:07;6.20;;;5.30;;
76552;SDS011;65395;53.168;18.156;2023-09-18T10:05:37;6.20;;;5.60;;
76552;SDS011;65395;53.168;18.156;2023-09-18T10:08:08;8.00;;;5.90;;
76552;SDS011;65395;53.168;18.156;2023-09-18T10:10:39;9.00;;;5.40;;
76552;SDS011;65395;53.168;18.156;2023-09-18T10:13:13;8.50;;;5.70;;
76552;SDS011;65395;53.168;18.156;2023-09-18T10:15:44;7.80;;;5.30;;
76552;SDS011;65395;53.168;18.156;2023-09-18T10:18:17;7.40;;;5.10;;
76552;SDS011;65395;53.168;18.156;2023-09-18T10:20:49;7.20;;;5.10;;
76552;SDS011;65395;53.168;18.156;2023-09-18T10:23:32;6.50;;;5.10;;
76552;SDS011;65395;53.168;18.156;2023-09-18T10:26:07;5.80;;;5.20;;
76552;SDS011;65395;53.168;18.156;2023-09-18T10:28:36;7.10;;;5.60;;
76552;SDS011;65395;53.168;18.156;2023-09-18T10:31:04;6.10;;;5.20;;
76552;SDS011;65395;53.168;18.156;2023-09-18T10:33:32;8.00;;;5.60;;
76552;SDS011;65395;53.168;18.156;2023-09-18T10:36:00;7.60;;;5.50;;
76552;SDS011;65395;53.168;18.156;2023-09-18T10:38:30;11.80;;;5.90;;
76552;SDS011;65395;53.168;18.156;2023-09-18T10:40:58;8.90;;;6.20;;
76552;SDS011;65395;53.168;18.156;2023-09-18T10:43:27;9.60;;;6.00;;
76552;SDS011;65395;53.168;18.156;2023-09-18T10:45:54;13.70;;;6.10;;
76552;SDS011;65395;53.168;18.156;2023-09-18T10:48:21;13.50;;;6.50;;
76552;SDS011;65395;53.168;18.156;2023-09-18T10:50:50;9.40;;;5.40;;
76552;SDS011;65395;53.168;18.156;2023-09-18T10:53:19;7.60;;;5.80;;
76552;SDS011;65395;53.168;18.156;2023-09-18T10:55:48;13.70;;;6.00;;
76552;SDS011;65395;53.168;18.156;2023-09-18T10:58:22;7.80;;;6.20;;
76552;SDS011;65395;53.168;18.156;2023-09-18T11:00:51;11.80;;;6.20;;
76552;SDS011;65395;53.168;18.156;2023-09-18T11:03:18;7.70;;;6.20;;
76552;SDS011;65395;53.168;18.156;2023-09-18T11:05:46;7.30;;;5.80;;
76552;SDS011;65395;53.168;18.156;2023-09-18T11:11:00;12.80;;;7.00;;
76552;SDS011;65395;53.168;18.156;2023-09-18T11:13:37;9.90;;;6.90;;
76552;SDS011;65395;53.168;18.156;2023-09-18T11:16:40;11.50;;;7.00;;
76552;SDS011;65395;53.168;18.156;2023-09-18T11:19:07;9.30;;;8.00;;
76552;SDS011;65395;53.168;18.156;2023-09-18T11:21:37;10.10;;;8.00;;
76552;SDS011;65395;53.168;18.156;2023-09-18T11:24:05;8.30;;;7.50;;
76552;SDS011;65395;53.168;18.156;2023-09-18T11:26:39;12.00;;;8.10;;
76552;SDS011;65395;53.168;18.156;2023-09-18T11:29:09;8.90;;;7.80;;
76552;SDS011;65395;53.168;18.156;2023-09-18T11:31:41;12.00;;;8.40;;
76552;SDS011;65395;53.168;18.156;2023-09-18T11:34:15;10.60;;;8.10;;
76552;SDS011;65395;53.168;18.156;2023-09-18T11:36:48;11.50;;;8.10;;
76552;SDS011;65395;53.168;18.156;2023-09-18T11:42:11;8.80;;;7.00;;
76552;SDS011;65395;53.168;18.156;2023-09-18T11:44:42;11.40;;;8.10;;
76552;SDS011;65395;53.168;18.156;2023-09-18T11:47:13;10.40;;;7.30;;
76552;SDS011;65395;53.168;18.156;2023-09-18T11:49:46;10.40;;;7.90;;
76552;SDS011;65395;53.168;18.156;2023-09-18T11:52:28;8.90;;;7.10;;
76552;SDS011;65395;53.168;18.156;2023-09-18T11:54:56;14.30;;;7.10;;
76552;SDS011;65395;53.168;18.156;2023-09-18T11:57:25;7.80;;;6.90;;
76552;SDS011;65395;53.168;18.156;2023-09-18T11:59:54;9.40;;;6.50;;
76552;SDS011;65395;53.168;18.156;2023-09-18T12:02:28;11.30;;;6.70;;
76552;SDS011;65395;53.168;18.156;2023-09-18T12:07:43;6.70;;;5.80;;
76552;SDS011;65395;53.168;18.156;2023-09-18T12:10:12;7.10;;;5.40;;
76552;SDS011;65395;53.168;18.156;2023-09-18T12:12:43;8.90;;;5.60;;
76552;SDS011;65395;53.168;18.156;2023-09-18T12:15:11;7.30;;;5.20;;
76552;SDS011;65395;53.168;18.156;2023-09-18T12:17:38;6.90;;;4.90;;
76552;SDS011;65395;53.168;18.156;2023-09-18T12:20:05;5.40;;;4.70;;
76552;SDS011;65395;53.168;18.156;2023-09-18T12:22:33;7.70;;;4.40;;
76552;SDS011;65395;53.168;18.156;2023-09-18T12:27:41;5.60;;;3.90;;
76552;SDS011;65395;53.168;18.156;2023-09-18T12:30:08;7.90;;;4.30;;
76552;SDS011;65395;53.168;18.156;2023-09-18T12:32:36;6.10;;;4.20;;
76552;SDS011;65395;53.168;18.156;2023-09-18T12:35:05;7.80;;;4.60;;
76552;SDS011;65395;53.168;18.156;2023-09-18T12:37:34;9.10;;;4.60;;
76552;SDS011;65395;53.168;18.156;2023-09-18T12:40:05;5.80;;;4.40;;
76552;SDS011;65395;53.168;18.156;2023-09-18T12:42:37;5.60;;;4.70;;
76552;SDS011;65395;53.168;18.156;2023-09-18T12:45:07;6.60;;;4.80;;
76552;SDS011;65395;53.168;18.156;2023-09-18T12:47:35;8.50;;;4.70;;
76552;SDS011;65395;53.168;18.156;2023-09-18T12:50:05;8.10;;;4.70;;
76552;SDS011;65395;53.168;18.156;2023-09-18T12:52:34;13.30;;;4.90;;
76552;SDS011;65395;53.168;18.156;2023-09-18T12:55:02;6.90;;;5.10;;
76552;SDS011;65395;53.168;18.156;2023-09-18T12:57:32;6.40;;;4.60;;
76552;SDS011;65395;53.168;18.156;2023-09-18T12:59:59;10.40;;;5.70;;
76552;SDS011;65395;53.168;18.156;2023-09-18T13:02:38;5.30;;;4.80;;
76552;SDS011;65395;53.168;18.156;2023-09-18T13:05:06;7.20;;;5.00;;
76552;SDS011;65395;53.168;18.156;2023-09-18T13:07:42;5.50;;;4.50;;
76552;SDS011;65395;53.168;18.156;2023-09-18T13:10:11;6.20;;;4.70;;
76552;SDS011;65395;53.168;18.156;2023-09-18T13:12:41;8.00;;;5.20;;
76552;SDS011;65395;53.168;18.156;2023-09-18T13:15:10;6.80;;;5.00;;
76552;SDS011;65395;53.168;18.156;2023-09-18T13:17:39;7.60;;;4.60;;
76552;SDS011;65395;53.168;18.156;2023-09-18T13:20:09;7.00;;;4.50;;
76552;SDS011;65395;53.168;18.156;2023-09-18T13:22:39;9.40;;;5.10;;
76552;SDS011;65395;53.168;18.156;2023-09-18T13:25:08;6.70;;;5.00;;
76552;SDS011;65395;53.168;18.156;2023-09-18T13:27:37;6.70;;;5.10;;
76552;SDS011;65395;53.168;18.156;2023-09-18T13:30:05;9.90;;;5.10;;
76552;SDS011;65395;53.168;18.156;2023-09-18T13:32:36;7.10;;;5.20;;
76552;SDS011;65395;53.168;18.156;2023-09-18T13:35:04;5.90;;;5.20;;
76552;SDS011;65395;53.168;18.156;2023-09-18T13:37:32;7.70;;;5.50;;
76552;SDS011;65395;53.168;18.156;2023-09-18T13:40:00;6.80;;;5.50;;
76552;SDS011;65395;53.168;18.156;2023-09-18T13:42:29;6.90;;;5.00;;
76552;SDS011;65395;53.168;18.156;2023-09-18T13:44:57;6.50;;;4.80;;
76552;SDS011;65395;53.168;18.156;2023-09-18T13:47:27;5.70;;;4.90;;
76552;SDS011;65395;53.168;18.156;2023-09-18T13:49:56;7.10;;;5.50;;
76552;SDS011;65395;53.168;18.156;2023-09-18T13:52:27;13.60;;;5.40;;
76552;SDS011;65395;53.168;18.156;2023-09-18T13:54:54;9.40;;;5.50;;
76552;SDS011;65395;53.168;18.156;2023-09-18T13:57:21;9.40;;;5.70;;
76552;SDS011;65395;53.168;18.156;2023-09-18T13:59:49;6.30;;;5.40;;
76552;SDS011;65395;53.168;18.156;2023-09-18T14:02:18;6.00;;;5.30;;
76552;SDS011;65395;53.168;18.156;2023-09-18T14:04:45;5.80;;;4.80;;
76552;SDS011;65395;53.168;18.156;2023-09-18T14:07:12;8.10;;;5.30;;
76552;SDS011;65395;53.168;18.156;2023-09-18T14:09:39;7.00;;;5.50;;
76552;SDS011;65395;53.168;18.156;2023-09-18T14:12:06;7.60;;;5.30;;
76552;SDS011;65395;53.168;18.156;2023-09-18T14:14:33;11.00;;;5.50;;
76552;SDS011;65395;53.168;18.156;2023-09-18T14:17:01;8.70;;;5.80;;
76552;SDS011;65395;53.168;18.156;2023-09-18T14:19:30;7.50;;;5.50;;
76552;SDS011;65395;53.168;18.156;2023-09-18T14:21:57;9.00;;;6.40;;
76552;SDS011;65395;53.168;18.156;2023-09-18T14:24:24;7.00;;;5.90;;
76552;SDS011;65395;53.168;18.156;2023-09-18T14:26:52;10.10;;;6.10;;
76552;SDS011;65395;53.168;18.156;2023-09-18T14:29:19;8.00;;;5.90;;
76552;SDS011;65395;53.168;18.156;2023-09-18T14:31:46;8.40;;;6.10;;
76552;SDS011;65395;53.168;18.156;2023-09-18T14:34:13;10.30;;;6.50;;
76552;SDS011;65395;53.168;18.156;2023-09-18T14:36:40;6.70;;;5.90;;